Time;durP1;ratioP1;P1;durP2;ratioP2;P2;SDS_P1;SDS_P2;PMS_P1;PMS_P2;Temp;Humidity;BMP_temperature;BMP_pressure;BME280_temperature;BME280_humidity;BME280_pressure;Samples;Min_cycle;Max_cycle;Signal;HPM_P1;HPM_P2
2021/09/05 00:01:03;;;;;;;;;;;;;;;;;;;;;
2021/09/05 00:04:23;;;;;;;16.25;11.10;;;15.90;90.80;;;;;;6214246;23;20087;-88
2021/09/05 00:07:22;;;;;;;;;;;;;;;;;;;;;
2021/09/05 00:10:08;;;;;;;17.23;11.20;;;15.80;90.80;;;;;;6215670;23;20084;-89
2021/09/05 00:12:50;;;;;;;;;;;;;;;;;;;;;
2021/09/05 00:15:46;;;;;;;;;;;;;;;;;;;;;
2021/09/05 00:18:38;;;;;;;15.35;11.35;;;15.80;90.90;;;;;;6207304;23;20080;-89
2021/09/05 00:21:39;;;;;;;14.40;10.90;;;15.80;90.90;;;;;;6194185;23;20004;-88
2021/09/05 00:24:18;;;;;;;;;;;;;;;;;;;;;
2021/09/05 00:26:56;;;;;;;16.67;10.77;;;15.70;90.80;;;;;;6215352;23;20080;-88
2021/09/05 00:29:54;;;;;;;17.73;11.50;;;15.70;90.90;;;;;;6213801;23;20051;-89
2021/09/05 00:32:49;;;;;;;;;;;;;;;;;;;;;
2021/09/05 00:35:48;;;;;;;16.80;11.48;;;15.70;90.90;;;;;;6215976;23;20075;-88
2021/09/05 00:41:55;;;;;;;;;;;;;;;;;;;;;
2021/09/05 00:44:32;;;;;;;16.60;11.38;;;15.60;91.00;;;;;;6216337;23;20099;-89
2021/09/05 00:47:05;;;;;;;20.10;11.88;;;15.50;91.00;;;;;;6215114;23;20437;-89
2021/09/05 00:49:35;;;;;;;18.90;12.68;;;15.50;91.40;;;;;;6213838;23;20806;-89
2021/09/05 00:52:53;;;;;;;18.30;12.40;;;15.50;91.10;;;;;;6215101;23;20356;-90
2021/09/05 00:55:36;;;;;;;;;;;;;;;;;;;;;
2021/09/05 00:58:41;;;;;;;17.67;11.25;;;15.50;91.10;;;;;;6215872;23;20072;-90
2021/09/05 01:01:22;;;;;;;;;;;;;;;;;;;;;
2021/09/05 01:04:28;;;;;;;19.50;11.93;;;15.40;91.00;;;;;;6214866;23;20064;-89
2021/09/05 01:10:56;;;;;;;;;;;;;;;;;;;;;
2021/09/05 01:13:47;;;;;;;;;;;;;;;;;;;;;
2021/09/05 01:16:49;;;;;;;17.17;12.27;;;15.30;91.10;;;;;;6124456;23;20085;-93
2021/09/05 01:22:56;;;;;;;;;;;;;;;;;;;;;
2021/09/05 01:25:46;;;;;;;17.27;12.52;;;15.20;91.20;;;;;;6214969;23;20083;-89
2021/09/05 01:28:36;;;;;;;20.50;12.82;;;15.20;91.20;;;;;;6214011;23;20009;-91
2021/09/05 01:31:02;;;;;;;;;;;15.10;91.20;;;;;;6194124;23;20015;-89
2021/09/05 01:33:39;;;;;;;18.90;10.75;;;15.10;91.20;;;;;;6215672;23;19899;-88
2021/09/05 01:36:42;;;;;;;20.63;12.10;;;15.10;91.30;;;;;;6190387;23;20206;-88
2021/09/05 01:39:15;;;;;;;18.27;12.23;;;15.10;91.30;;;;;;6213191;23;20008;-89
2021/09/05 01:42:18;;;;;;;15.93;11.25;;;15.10;91.20;;;;;;6189625;23;20011;-89
2021/09/05 01:45:09;;;;;;;;;;;;;;;;;;;;;
2021/09/05 01:51:20;;;;;;;18.25;11.77;;;15.00;91.30;;;;;;6199463;23;20016;-89
2021/09/05 01:54:24;;;;;;;;;;;;;;;;;;;;;
2021/09/05 02:00:13;;;;;;;18.50;12.25;;;15.00;91.20;;;;;;6212483;23;20004;-89
2021/09/05 02:06:52;;;;;;;;;;;;;;;;;;;;;
2021/09/05 02:13:16;;;;;;;;;;;;;;;;;;;;;
2021/09/05 02:19:45;;;;;;;;;;;;;;;;;;;;;
2021/09/05 02:22:46;;;;;;;18.10;11.85;;;14.80;91.30;;;;;;6211433;23;20084;-89
2021/09/05 02:25:35;;;;;;;;;;;;;;;;;;;;;
2021/09/05 02:28:46;;;;;;;17.95;11.88;;;14.80;91.40;;;;;;6217130;23;20083;-88
2021/09/05 02:31:51;;;;;;;;;;;;;;;;;;;;;
2021/09/05 02:34:40;;;;;;;18.67;12.18;;;14.70;91.50;;;;;;6217285;23;20079;-89
2021/09/05 02:37:41;;;;;;;;;;;;;;;;;;;;;
2021/09/05 02:44:00;;;;;;;;;;;;;;;;;;;;;
2021/09/05 02:49:56;;;;;;;17.08;11.32;;;14.70;91.50;;;;;;6179950;23;20040;-89
2021/09/05 02:53:12;;;;;;;18.55;12.05;;;14.70;91.50;;;;;;6191433;23;20404;-89
2021/09/05 02:56:19;;;;;;;;;;;;;;;;;;;;;
2021/09/05 02:59:06;;;;;;;18.17;12.18;;;14.60;91.50;;;;;;6213989;23;20080;-88
2021/09/05 03:01:51;;;;;;;16.95;12.18;;;14.60;91.50;;;;;;6215976;23;20076;-89
2021/09/05 03:04:40;;;;;;;18.85;11.35;;;14.60;91.50;;;;;;6216297;23;20015;-89
2021/09/05 03:07:35;;;;;;;18.00;11.13;;;14.60;91.60;;;;;;6214181;23;20319;-88
2021/09/05 03:10:33;;;;;;;20.08;11.95;;;14.50;91.50;;;;;;6217661;23;20066;-89
2021/09/05 03:13:50;;;;;;;;;;;;;;;;;;;;;
2021/09/05 03:16:49;;;;;;;16.15;11.25;;;14.50;91.60;;;;;;6213770;23;20075;-90
2021/09/05 03:22:39;;;;;;;;;;;;;;;;;;;;;
2021/09/05 03:25:30;;;;;;;19.83;11.88;;;14.40;91.70;;;;;;6216850;23;20111;-89
2021/09/05 03:31:33;;;;;;;;;;;;;;;;;;;;;
2021/09/05 03:34:04;;;;;;;15.65;11.45;;;14.30;91.70;;;;;;6213607;23;20080;-88
2021/09/05 03:37:18;;;;;;;;;;;;;;;;;;;;;
2021/09/05 03:40:04;;;;;;;18.98;11.52;;;14.30;91.80;;;;;;6216259;23;20144;-89
2021/09/05 03:43:16;;;;;;;19.23;11.77;;;14.30;91.80;;;;;;6199465;23;20001;-91
2021/09/05 03:46:02;;;;;;;18.88;11.02;;;14.30;91.80;;;;;;6215355;23;20003;-89
2021/09/05 03:52:28;;;;;;;;;;;;;;;;;;;;;
2021/09/05 03:55:07;;;;;;;;;;;;;;;;;;;;;
2021/09/05 03:58:05;;;;;;;16.52;11.13;;;14.20;91.80;;;;;;6216080;23;20396;-89
2021/09/05 04:00:45;;;;;;;17.95;12.82;;;14.20;91.80;;;;;;6187083;23;20342;-90
2021/09/05 04:06:29;;;;;;;16.58;10.95;;;14.10;91.90;;;;;;6172786;23;20020;-88
2021/09/05 04:12:45;;;;;;;;;;;;;;;;;;;;;
2021/09/05 04:15:49;;;;;;;;;;;;;;;;;;;;;
2021/09/05 04:18:55;;;;;;;;;;;;;;;;;;;;;
2021/09/05 04:21:59;;;;;;;17.55;11.75;;;14.10;91.90;;;;;;6216888;23;20080;-88
2021/09/05 04:24:53;;;;;;;;;;;;;;;;;;;;;
2021/09/05 04:27:33;;;;;;;15.07;11.75;;;14.00;92.00;;;;;;6212708;23;20074;-89
2021/09/05 04:30:32;;;;;;;;;;;;;;;;;;;;;
2021/09/05 04:33:56;;;;;;;16.38;11.57;;;14.00;92.10;;;;;;6215825;23;20087;-89
2021/09/05 04:36:35;;;;;;;;;;;;;;;;;;;;;
2021/09/05 04:39:45;;;;;;;18.73;11.82;;;13.90;92.10;;;;;;6216715;23;20067;-89
2021/09/05 04:46:00;;;;;;;;;;;;;;;;;;;;;
2021/09/05 04:48:34;;;;;;;16.90;10.88;;;13.90;92.20;;;;;;6215688;23;20072;-89
2021/09/05 04:51:19;;;;;;;19.00;10.95;;;13.90;92.20;;;;;;6186370;23;20446;-90
2021/09/05 04:57:56;;;;;;;;;;;;;;;;;;;;;
2021/09/05 05:00:40;;;;;;;;;;;;;;;;;;;;;
2021/09/05 05:06:48;;;;;;;16.90;11.23;;;13.80;92.20;;;;;;6173057;23;20012;-89
2021/09/05 05:20:03;;;;;;;19.13;11.50;;;13.80;92.30;;;;;;6189760;23;20096;-90
2021/09/05 05:22:50;;;;;;;;;;;;;;;;;;;;;
2021/09/05 05:29:07;;;;;;;15.23;10.50;;;13.80;92.30;;;;;;6214431;23;20004;-91
2021/09/05 05:32:11;;;;;;;15.32;10.80;;;13.80;92.30;;;;;;6200805;23;20024;-89
2021/09/05 05:38:02;;;;;;;15.93;10.77;;;13.80;92.30;;;;;;6193920;23;20008;-90
2021/09/05 05:41:23;;;;;;;;;;;;;;;;;;;;;
2021/09/05 05:44:22;;;;;;;;;;;;;;;;;;;;;
2021/09/05 05:46:49;;;;;;;17.27;10.82;;;13.80;92.30;;;;;;6207605;23;20013;-90
2021/09/05 05:49:56;;;;;;;;;;;;;;;;;;;;;
2021/09/05 05:59:04;;;;;;;18.52;10.80;;;13.90;92.30;;;;;;6215892;23;20040;-91
2021/09/05 06:01:53;;;;;;;15.60;11.60;;;13.90;92.20;;;;;;6214373;23;20011;-91
2021/09/05 06:04:44;;;;;;;17.70;10.95;;;13.90;92.20;;;;;;6214865;23;20392;-90
2021/09/05 06:08:19;;;;;;;;;;;;;;;;;;;;;
2021/09/05 06:11:19;;;;;;;14.90;10.50;;;13.90;92.20;;;;;;6208523;23;20063;-90
2021/09/05 06:17:21;;;;;;;18.70;12.50;;;13.90;92.20;;;;;;6169906;23;20004;-89
2021/09/05 06:20:04;;;;;;;16.73;11.38;;;13.90;92.20;;;;;;6214489;23;20134;-90
2021/09/05 06:29:52;;;;;;;;;;;;;;;;;;;;;
2021/09/05 06:35:27;;;;;;;16.05;11.90;;;14.00;92.20;;;;;;6193302;23;20005;-89
2021/09/05 06:38:36;;;;;;;21.35;12.40;;;14.00;92.20;;;;;;6192114;23;20012;-92
2021/09/05 06:44:31;;;;;;;19.15;12.05;;;14.10;92.20;;;;;;6199576;23;20013;-89
2021/09/05 06:47:41;;;;;;;;;;;;;;;;;;;;;
2021/09/05 06:50:40;;;;;;;16.33;10.68;;;14.20;92.20;;;;;;6218139;23;20653;-92
2021/09/05 06:53:46;;;;;;;17.85;10.85;;;14.20;92.20;;;;;;6219943;23;20035;-90
2021/09/05 06:56:41;;;;;;;;;;;;;;;;;;;;;
2021/09/05 07:02:22;;;;;;;16.13;11.13;;;14.40;92.00;;;;;;6189603;23;20396;-90
2021/09/05 07:05:14;;;;;;;;;;;;;;;;;;;;;
2021/09/05 07:08:02;;;;;;;16.83;11.52;;;14.50;91.90;;;;;;6212724;23;20298;-89
2021/09/05 07:11:04;;;;;;;15.13;10.65;;;14.50;91.90;;;;;;6200203;23;20095;-93
2021/09/05 07:16:48;;;;;;;14.57;10.52;;;14.60;91.90;;;;;;6201569;23;20011;-91
2021/09/05 07:19:44;;;;;;;16.52;10.90;;;14.70;92.20;;;;;;6191924;23;20008;-91
2021/09/05 07:23:03;;;;;;;;;;;;;;;;;;;;;
2021/09/05 07:26:03;;;;;;;;;;;;;;;;;;;;;
2021/09/05 07:29:02;;;;;;;;;;;;;;;;;;;;;
2021/09/05 07:31:55;;;;;;;17.42;11.40;;;14.90;91.10;;;;;;6217367;23;20076;-91
2021/09/05 07:47:31;;;;;;;;;;;;;;;;;;;;;
2021/09/05 07:56:17;;;;;;;18.40;10.70;;;15.30;90.40;;;;;;6195002;23;20028;-90
2021/09/05 07:59:21;;;;;;;;;;;;;;;;;;;;;
2021/09/05 08:21:23;;;;;;;;;;;;;;;;;;;;;
2021/09/05 08:34:33;;;;;;;;;;;;;;;;;;;;;
2021/09/05 08:40:57;;;;;;;14.20;9.20;;;16.30;90.00;;;;;;6217380;23;20423;-90
2021/09/05 08:50:22;;;;;;;14.52;9.52;;;16.40;89.40;;;;;;6218284;23;20013;-91
2021/09/05 08:53:20;;;;;;;15.05;10.00;;;16.50;88.80;;;;;;6169092;23;20032;-91
2021/09/05 08:59:39;;;;;;;13.65;8.65;;;16.70;88.20;;;;;;6169710;23;20019;-93
2021/09/05 09:03:07;;;;;;;;;;;;;;;;;;;;;
2021/09/05 09:06:23;;;;;;;12.05;8.68;;;16.80;87.80;;;;;;6216348;23;20064;-92
2021/09/05 09:09:01;;;;;;;16.35;10.75;;;16.90;87.80;;;;;;6193119;23;20004;-82
2021/09/05 09:11:49;;;;;;;13.15;8.93;;;17.00;87.10;;;;;;6214500;23;20033;-81
2021/09/05 09:14:16;;;;;;;13.43;9.18;;;17.00;87.20;;;;;;6212230;23;20004;-82
2021/09/05 09:16:42;;;;;;;14.57;9.55;;;17.10;87.40;;;;;;6212207;23;20000;-81
2021/09/05 09:19:20;;;;;;;13.32;9.40;;;17.20;87.40;;;;;;6212152;23;20354;-82
2021/09/05 09:21:46;;;;;;;13.90;9.88;;;17.30;87.40;;;;;;6212558;23;20013;-83
2021/09/05 09:24:18;;;;;;;14.02;9.25;;;17.30;87.20;;;;;;6213142;23;20496;-84
2021/09/05 09:26:57;;;;;;;12.48;9.27;;;17.40;87.20;;;;;;6210993;23;20009;-82
2021/09/05 09:29:22;;;;;;;15.57;9.60;;;17.50;86.80;;;;;;6211762;23;20060;-82
2021/09/05 09:32:00;;;;;;;12.93;8.52;;;17.50;86.60;;;;;;6211956;23;20427;-81
2021/09/05 09:34:26;;;;;;;13.23;9.38;;;17.60;86.80;;;;;;6210900;23;20024;-82
2021/09/05 09:36:57;;;;;;;13.13;9.13;;;17.70;86.80;;;;;;6186717;23;20031;-82
2021/09/05 09:39:23;;;;;;;12.45;8.80;;;17.70;86.40;;;;;;6211220;23;20344;-82
2021/09/05 09:41:48;;;;;;;11.82;7.88;;;17.70;86.40;;;;;;6186246;23;20011;-82
2021/09/05 09:44:14;;;;;;;13.52;8.70;;;17.80;86.40;;;;;;6212812;23;20012;-83
2021/09/05 09:46:43;;;;;;;12.55;8.48;;;17.80;86.10;;;;;;6211882;23;20102;-84
2021/09/05 09:49:12;;;;;;;15.65;9.93;;;17.90;86.10;;;;;;6210140;23;20005;-83
2021/09/05 09:51:39;;;;;;;13.50;9.48;;;17.90;86.00;;;;;;6210710;23;20004;-82
2021/09/05 09:54:06;;;;;;;10.70;8.50;;;18.00;85.80;;;;;;6211525;23;20012;-82
2021/09/05 09:56:34;;;;;;;14.35;9.32;;;18.10;85.80;;;;;;6210242;23;20299;-81
2021/09/05 09:59:03;;;;;;;14.38;10.27;;;18.10;85.40;;;;;;6212987;23;20052;-83
2021/09/05 10:01:33;;;;;;;12.13;8.07;;;18.20;85.40;;;;;;6210973;23;20005;-82
2021/09/05 10:04:09;;;;;;;13.27;8.18;;;18.20;85.50;;;;;;6211234;23;20083;-83
2021/09/05 10:06:36;;;;;;;14.20;9.25;;;18.20;85.50;;;;;;6210904;23;20024;-82
2021/09/05 10:09:07;;;;;;;13.32;8.82;;;18.30;85.20;;;;;;6213878;23;20039;-83
2021/09/05 10:11:34;;;;;;;13.05;8.65;;;18.40;84.90;;;;;;6210813;23;20009;-83
2021/09/05 10:14:00;;;;;;;15.95;9.90;;;18.40;85.50;;;;;;6187170;23;20015;-83
2021/09/05 10:16:26;;;;;;;12.65;8.63;;;18.40;84.50;;;;;;6212966;23;20122;-83
2021/09/05 10:18:54;;;;;;;12.73;7.80;;;18.50;83.40;;;;;;6211343;23;20035;-82
2021/09/05 10:21:21;;;;;;;12.73;7.32;;;18.60;82.70;;;;;;6211081;23;20005;-83
2021/09/05 10:23:52;;;;;;;14.48;8.48;;;18.60;82.10;;;;;;6211730;23;20032;-82
2021/09/05 10:26:18;;;;;;;11.38;7.85;;;18.70;81.50;;;;;;6212520;23;20001;-83
2021/09/05 10:28:55;;;;;;;10.35;7.35;;;18.70;81.60;;;;;;6211740;23;20007;-81
2021/09/05 10:31:35;;;;;;;12.52;7.85;;;18.80;81.50;;;;;;6213477;23;20004;-82
2021/09/05 10:34:00;;;;;;;9.55;6.93;;;18.90;81.40;;;;;;6211653;23;20040;-82
2021/09/05 10:36:30;;;;;;;14.77;8.13;;;19.00;81.40;;;;;;6211774;23;20009;-82
2021/09/05 10:39:08;;;;;;;11.73;7.32;;;19.00;78.10;;;;;;6213827;23;20004;-82
2021/09/05 10:41:52;;;;;;;11.48;6.85;;;19.10;78.70;;;;;;6212759;23;20082;-82
2021/09/05 10:44:21;;;;;;;12.57;7.07;;;19.10;78.60;;;;;;6189683;23;20021;-82
2021/09/05 10:46:50;;;;;;;11.98;7.82;;;19.20;78.70;;;;;;6214943;23;20362;-83
2021/09/05 10:49:45;;;;;;;11.75;7.80;;;19.20;78.70;;;;;;6212776;23;20000;-83
2021/09/05 10:52:11;;;;;;;12.40;7.93;;;19.30;77.70;;;;;;6195216;23;20004;-82
2021/09/05 10:54:50;;;;;;;13.05;7.53;;;19.30;77.80;;;;;;6188341;23;20465;-82
2021/09/05 10:57:38;;;;;;;11.75;7.63;;;19.40;77.90;;;;;;6213091;23;20005;-83
2021/09/05 11:00:08;;;;;;;11.05;7.75;;;19.40;77.80;;;;;;6213789;23;20027;-81
2021/09/05 11:03:07;;;;;;;10.95;6.82;;;19.40;78.00;;;;;;6213377;23;20047;-83
2021/09/05 11:05:32;;;;;;;10.02;6.90;;;19.50;78.40;;;;;;6187624;23;20040;-83
2021/09/05 11:08:22;;;;;;;9.35;6.57;;;19.50;77.90;;;;;;6213474;23;20422;-84
2021/09/05 11:10:52;;;;;;;9.45;6.65;;;19.50;77.70;;;;;;6214803;23;20012;-84
2021/09/05 11:13:46;;;;;;;12.75;8.05;;;19.60;77.80;;;;;;6214454;23;20080;-83
2021/09/05 11:16:16;;;;;;;9.98;7.10;;;19.60;75.80;;;;;;6188682;23;20000;-83
2021/09/05 11:18:45;;;;;;;8.98;6.80;;;19.70;75.70;;;;;;6188810;23;20027;-85
2021/09/05 11:21:24;;;;;;;9.90;6.85;;;19.70;76.00;;;;;;6190739;23;20087;-83
2021/09/05 11:23:55;;;;;;;11.10;6.88;;;19.90;75.90;;;;;;6217061;23;20084;-83
2021/09/05 11:26:20;;;;;;;15.57;6.88;;;19.80;76.20;;;;;;6216817;23;20028;-82
2021/09/05 11:28:50;;;;;;;10.43;6.15;;;19.90;75.80;;;;;;6188148;23;20040;-86
2021/09/05 11:31:46;;;;;;;9.48;7.03;;;20.00;75.50;;;;;;6188281;23;20487;-85
2021/09/05 11:34:35;;;;;;;10.63;7.18;;;20.00;76.10;;;;;;6193629;23;20017;-84
2021/09/05 11:37:04;;;;;;;10.82;7.43;;;20.00;75.70;;;;;;6212795;23;20059;-83
2021/09/05 11:39:33;;;;;;;10.97;6.90;;;20.00;74.90;;;;;;6212545;23;20001;-84
2021/09/05 11:42:05;;;;;;;15.35;7.00;;;20.10;75.30;;;;;;6212455;23;20454;-83
2021/09/05 11:44:37;;;;;;;9.68;7.05;;;20.10;74.70;;;;;;6213274;23;20091;-84
2021/09/05 11:47:20;;;;;;;13.70;6.30;;;20.20;74.90;;;;;;6212533;23;20004;-84
2021/09/05 11:50:08;;;;;;;;;;;;;;;;;;;;;
2021/09/05 11:53:05;;;;;;;11.18;6.93;;;20.30;75.50;;;;;;6215903;23;20525;-85
2021/09/05 11:55:59;;;;;;;9.23;7.10;;;20.30;74.00;;;;;;6213092;23;20004;-85
2021/09/05 11:58:30;;;;;;;10.35;7.32;;;20.40;74.00;;;;;;6193757;23;20001;-82
2021/09/05 12:01:04;;;;;;;9.07;6.28;;;20.40;74.40;;;;;;6215106;23;20043;-82
2021/09/05 12:03:58;;;;;;;9.52;6.95;;;20.50;74.10;;;;;;6189772;23;20012;-83
2021/09/05 12:06:23;;;;;;;10.48;6.22;;;20.60;73.80;;;;;;6214532;23;20012;-83
2021/09/05 12:08:59;;;;;;;9.18;6.72;;;20.70;73.80;;;;;;6216434;23;20004;-82
2021/09/05 12:11:27;;;;;;;8.68;6.75;;;20.80;73.10;;;;;;6214545;23;20076;-84
2021/09/05 12:14:02;;;;;;;9.57;6.65;;;20.70;73.20;;;;;;6214976;23;20427;-84
2021/09/05 12:16:41;;;;;;;8.35;6.93;;;20.80;73.30;;;;;;6189117;23;20015;-84
2021/09/05 12:19:14;;;;;;;9.43;7.35;;;20.80;72.70;;;;;;6189945;23;20448;-84
2021/09/05 12:21:40;;;;;;;8.77;6.95;;;20.90;71.10;;;;;;6212967;23;20055;-82
2021/09/05 12:24:20;;;;;;;8.95;6.45;;;20.90;71.50;;;;;;6186500;23;20073;-83
2021/09/05 12:26:46;;;;;;;12.48;6.75;;;20.90;71.80;;;;;;6213253;23;20004;-82
2021/09/05 12:29:30;;;;;;;9.15;6.88;;;20.90;71.90;;;;;;6211516;23;20009;-84
2021/09/05 12:32:04;;;;;;;8.20;6.60;;;21.00;72.70;;;;;;6209852;23;20007;-84
2021/09/05 12:34:46;;;;;;;7.85;6.15;;;21.00;72.20;;;;;;6187978;23;20005;-84
2021/09/05 12:37:20;;;;;;;9.68;6.25;;;21.10;72.20;;;;;;6214018;23;20502;-83
2021/09/05 12:39:57;;;;;;;9.90;7.10;;;21.10;72.30;;;;;;6215195;23;20003;-82
2021/09/05 12:42:32;;;;;;;9.65;6.90;;;21.10;72.40;;;;;;6213355;23;20419;-81
2021/09/05 12:45:02;;;;;;;9.85;6.88;;;21.20;71.70;;;;;;6211571;23;20012;-83
2021/09/05 12:47:36;;;;;;;7.85;6.38;;;21.20;71.90;;;;;;6212313;23;20399;-85
2021/09/05 12:50:02;;;;;;;8.32;7.05;;;21.20;71.40;;;;;;6214992;23;20001;-84
2021/09/05 12:52:39;;;;;;;7.90;5.95;;;21.20;70.00;;;;;;6213772;23;20001;-86
2021/09/05 12:55:07;;;;;;;10.18;6.85;;;21.30;70.10;;;;;;6214054;23;20079;-82
2021/09/05 12:57:35;;;;;;;8.90;7.03;;;21.30;70.00;;;;;;6212244;23;20009;-85
2021/09/05 13:00:06;;;;;;;7.85;6.75;;;21.30;70.20;;;;;;6212748;23;20391;-82
2021/09/05 13:02:36;;;;;;;8.07;6.03;;;21.30;69.80;;;;;;6213927;23;20004;-81
2021/09/05 13:05:16;;;;;;;9.27;7.05;;;21.40;69.90;;;;;;6213177;23;20017;-83
2021/09/05 13:07:51;;;;;;;8.88;6.78;;;21.40;69.90;;;;;;6211313;23;20047;-83
2021/09/05 13:10:17;;;;;;;8.73;7.18;;;21.40;70.10;;;;;;6211307;23;20004;-83
2021/09/05 13:12:51;;;;;;;9.13;6.90;;;21.50;69.50;;;;;;6211935;23;20061;-84
2021/09/05 13:15:17;;;;;;;10.70;7.35;;;21.50;68.90;;;;;;6212068;23;20001;-82
2021/09/05 13:18:04;;;;;;;9.52;7.18;;;21.60;67.80;;;;;;6185045;23;20032;-84
2021/09/05 13:20:33;;;;;;;11.18;7.45;;;21.60;67.50;;;;;;6210686;23;20030;-83
2021/09/05 13:22:58;;;;;;;9.77;7.72;;;21.60;66.90;;;;;;6184687;23;20096;-82
2021/09/05 13:25:34;;;;;;;9.95;7.35;;;21.70;66.40;;;;;;6210589;23;20375;-83
2021/09/05 13:28:05;;;;;;;10.90;7.40;;;21.70;66.50;;;;;;6212645;23;20011;-82
2021/09/05 13:30:35;;;;;;;8.35;7.15;;;21.80;66.40;;;;;;6213559;23;20096;-83
2021/09/05 13:33:04;;;;;;;10.18;7.72;;;21.80;66.80;;;;;;6187362;23;20634;-85
2021/09/05 13:35:30;;;;;;;9.85;7.30;;;21.80;66.00;;;;;;6211944;23;20015;-82
2021/09/05 13:37:56;;;;;;;9.88;7.22;;;21.80;65.80;;;;;;6212113;23;20009;-84
2021/09/05 13:40:21;;;;;;;9.57;7.18;;;21.90;65.90;;;;;;6212892;23;20004;-81
2021/09/05 13:42:59;;;;;;;9.57;7.82;;;21.90;65.70;;;;;;6186292;23;20291;-80
2021/09/05 13:45:24;;;;;;;10.85;7.18;;;21.90;64.30;;;;;;6189345;23;20046;-81
2021/09/05 13:47:50;;;;;;;8.93;7.38;;;21.90;64.60;;;;;;6212098;23;20384;-82
2021/09/05 13:50:19;;;;;;;9.02;7.57;;;21.90;64.30;;;;;;6209477;23;20498;-84
2021/09/05 13:53:02;;;;;;;;;;;;;;;;;;;;;
2021/09/05 13:55:33;;;;;;;11.00;7.85;;;22.00;63.80;;;;;;6213514;23;20088;-83
2021/09/05 13:58:01;;;;;;;;;;;22.00;63.70;;;;;;6187336;23;20011;-83
2021/09/05 14:00:31;;;;;;;8.13;6.53;;;22.10;64.20;;;;;;6211454;23;19949;-83
2021/09/05 14:02:59;;;;;;;9.77;7.23;;;22.00;63.20;;;;;;6208323;23;20385;-84
2021/09/05 14:05:25;;;;;;;8.65;6.82;;;22.00;63.30;;;;;;6187771;23;20099;-84
2021/09/05 14:07:54;;;;;;;7.45;6.65;;;22.10;63.90;;;;;;6210590;23;20594;-83
2021/09/05 14:10:25;;;;;;;8.57;6.70;;;22.10;64.00;;;;;;6212770;23;19996;-84
2021/09/05 14:12:51;;;;;;;7.93;6.43;;;22.10;64.20;;;;;;6214361;23;20098;-83
2021/09/05 14:15:19;;;;;;;8.48;6.72;;;22.10;64.70;;;;;;6189749;23;20005;-83
2021/09/05 14:17:59;;;;;;;9.07;7.00;;;22.10;64.70;;;;;;6187511;23;20066;-84
2021/09/05 14:20:35;;;;;;;8.53;6.60;;;22.10;64.90;;;;;;6214568;23;20067;-85
2021/09/05 14:23:10;;;;;;;8.70;7.25;;;22.10;65.60;;;;;;6215052;23;20001;-83
2021/09/05 14:25:43;;;;;;;9.27;6.93;;;22.10;66.40;;;;;;6214459;23;20056;-83
2021/09/05 14:28:13;;;;;;;8.48;6.93;;;22.10;66.30;;;;;;6213196;23;20012;-84
2021/09/05 14:49:31;;;;;;;8.15;7.05;;;22.30;65.70;;;;;;6190554;23;20016;-85
2021/09/05 14:53:58;;;;;;;10.50;7.35;;;22.20;64.90;;;;;;6204010;23;20009;-84
2021/09/05 14:54:56;;;;;;;8.02;7.07;;;22.20;63.80;;;;;;6214199;23;20015;-84
2021/09/05 14:57:22;;;;;;;9.02;7.55;;;22.30;64.00;;;;;;6212866;23;20419;-83
2021/09/05 14:59:50;;;;;;;9.85;7.55;;;22.20;63.60;;;;;;6211563;23;20005;-85
2021/09/05 15:02:20;;;;;;;8.77;7.03;;;22.30;63.70;;;;;;6213806;23;20004;-83
2021/09/05 15:05:06;;;;;;;10.25;7.75;;;22.30;63.70;;;;;;6214913;23;20461;-83
2021/09/05 15:13:09;;;;;;;10.10;7.72;;;22.50;62.50;;;;;;6213876;23;20015;-84
2021/09/05 15:15:35;;;;;;;10.75;6.93;;;22.50;62.80;;;;;;6187319;23;20083;-83
2021/09/05 15:18:03;;;;;;;8.43;7.20;;;22.50;62.90;;;;;;6187951;23;20470;-83
2021/09/05 15:20:29;;;;;;;10.10;7.68;;;22.50;62.80;;;;;;6188451;23;20008;-84
2021/09/05 15:22:59;;;;;;;8.60;7.10;;;22.50;63.00;;;;;;6188001;23;20008;-85
2021/09/05 15:25:24;;;;;;;7.72;6.78;;;22.60;62.60;;;;;;6190697;23;20592;-83
2021/09/05 15:27:58;;;;;;;8.48;6.93;;;22.50;62.60;;;;;;6213423;23;20007;-86
2021/09/05 15:36:37;;;;;;;8.32;6.82;;;22.50;61.80;;;;;;6216913;23;20115;-82
2021/09/05 15:39:16;;;;;;;9.38;7.28;;;22.50;62.20;;;;;;6214843;23;20167;-83
2021/09/05 15:52:26;;;;;;;7.38;6.55;;;22.40;63.50;;;;;;6215361;23;20008;-83
2021/09/05 15:54:53;;;;;;;10.38;7.05;;;22.40;63.70;;;;;;6215310;23;20024;-87
2021/09/05 15:57:20;;;;;;;9.52;7.50;;;22.40;64.50;;;;;;6190225;23;20048;-85
2021/09/05 16:05:35;;;;;;;7.72;6.90;;;22.30;64.40;;;;;;6227656;23;20040;-85
2021/09/05 16:16:40;;;;;;;10.20;6.90;;;22.30;63.70;;;;;;6217276;23;20016;-85
2021/09/05 16:19:52;;;;;;;9.07;7.05;;;22.20;64.00;;;;;;6216874;23;20004;-87
2021/09/05 16:22:32;;;;;;;11.13;7.50;;;22.20;64.20;;;;;;6200860;23;20004;-87
2021/09/05 16:25:21;;;;;;;9.85;7.90;;;22.20;64.70;;;;;;6192800;23;20018;-89
2021/09/05 16:28:20;;;;;;;;;;;;;;;;;;;;;
2021/09/05 16:31:09;;;;;;;9.77;8.77;;;22.20;64.20;;;;;;6217953;23;20084;-88
2021/09/05 16:37:13;;;;;;;13.80;7.95;;;22.10;64.30;;;;;;6228230;23;20039;-91
2021/09/05 16:42:26;;;;;;;8.15;6.75;;;22.10;64.60;;;;;;6214878;23;20342;-84
2021/09/05 16:45:02;;;;;;;8.43;7.00;;;22.00;65.20;;;;;;6214751;23;20099;-84
2021/09/05 16:47:28;;;;;;;7.60;6.80;;;22.00;65.70;;;;;;6215405;23;20071;-84
2021/09/05 16:49:54;;;;;;;12.35;6.57;;;22.00;65.60;;;;;;6213422;23;20439;-84
2021/09/05 16:52:26;;;;;;;9.40;7.22;;;21.90;65.90;;;;;;6212377;23;20032;-88
2021/09/05 16:54:58;;;;;;;8.65;7.10;;;21.90;66.10;;;;;;6212650;23;20000;-88
2021/09/05 16:57:26;;;;;;;8.43;6.47;;;21.80;66.60;;;;;;6189087;23;20016;-84
2021/09/05 17:00:06;;;;;;;9.68;8.35;;;21.80;66.90;;;;;;6212561;23;20051;-85
2021/09/05 17:02:32;;;;;;;10.07;7.90;;;21.70;66.90;;;;;;6213960;23;20441;-83
2021/09/05 17:05:18;;;;;;;9.02;7.63;;;21.70;67.10;;;;;;6214709;23;20025;-82
2021/09/05 17:07:46;;;;;;;11.27;8.27;;;21.70;67.10;;;;;;6192982;23;20100;-84
2021/09/05 17:10:18;;;;;;;10.20;8.20;;;21.60;67.40;;;;;;6212695;23;20004;-83
2021/09/05 17:12:51;;;;;;;8.55;7.20;;;21.60;67.30;;;;;;6212681;23;20036;-84
2021/09/05 17:15:32;;;;;;;;;;;;;;;;;;;;;
2021/09/05 17:18:17;;;;;;;8.40;7.05;;;21.40;68.10;;;;;;6213581;23;20072;-83
2021/09/05 17:20:43;;;;;;;9.80;8.18;;;21.40;68.60;;;;;;6212633;23;20027;-83
2021/09/05 17:23:12;;;;;;;10.18;8.00;;;21.30;68.50;;;;;;6210855;23;20008;-83
2021/09/05 17:26:08;;;;;;;;;;;;;;;;;;;;;
2021/09/05 17:28:26;;;;;;;9.55;7.22;;;21.20;68.60;;;;;;6203086;23;20421;-83
2021/09/05 17:30:55;;;;;;;10.02;8.05;;;21.20;69.00;;;;;;6211741;23;20039;-85
2021/09/05 17:33:21;;;;;;;9.63;7.63;;;21.20;68.80;;;;;;6210812;23;20001;-84
2021/09/05 17:35:58;;;;;;;8.82;7.25;;;21.20;69.00;;;;;;6211544;23;20007;-84
2021/09/05 17:38:36;;;;;;;9.00;6.80;;;21.10;69.60;;;;;;6187806;23;20008;-85
2021/09/05 17:41:08;;;;;;;8.13;7.07;;;21.00;70.30;;;;;;6188978;23;20066;-83
2021/09/05 17:43:37;;;;;;;11.73;8.15;;;20.90;70.70;;;;;;6213588;23;20036;-85
2021/09/05 17:46:03;;;;;;;8.93;7.57;;;20.80;71.30;;;;;;6212354;23;20005;-84
2021/09/05 17:48:50;;;;;;;9.50;7.80;;;20.80;71.70;;;;;;6188262;23;20016;-85
2021/09/05 17:51:24;;;;;;;10.02;7.63;;;20.70;72.10;;;;;;6187864;23;20009;-84
2021/09/05 17:53:54;;;;;;;9.90;7.80;;;20.60;72.50;;;;;;6186605;23;20146;-84
2021/09/05 17:56:20;;;;;;;;;;;20.60;72.90;;;;;;6187192;23;20300;-83
2021/09/05 17:58:49;;;;;;;10.57;8.35;;;20.50;73.10;;;;;;6211350;23;20026;-85
2021/09/05 18:08:36;;;;;;;10.75;8.57;;;20.30;74.30;;;;;;6211886;23;20131;-91
2021/09/05 18:12:02;;;;;;;8.82;7.60;;;20.20;74.80;;;;;;6214744;23;20005;-90
2021/09/05 18:17:50;;;;;;;;;;;;;;;;;;;;;
2021/09/05 18:24:03;;;;;;;;;;;;;;;;;;;;;
2021/09/05 18:34:09;;;;;;;11.15;9.20;;;19.60;78.20;;;;;;6151590;23;20013;-91
2021/09/05 18:37:37;;;;;;;;;;;;;;;;;;;;;
2021/09/05 18:40:53;;;;;;;;;;;;;;;;;;;;;
2021/09/05 18:44:12;;;;;;;;;;;;;;;;;;;;;
2021/09/05 18:50:41;;;;;;;;;;;;;;;;;;;;;
2021/09/05 18:57:24;;;;;;;12.13;9.52;;;19.00;80.60;;;;;;6204619;23;20383;-90
2021/09/05 19:00:33;;;;;;;;;;;;;;;;;;;;;
2021/09/05 19:07:08;;;;;;;;;;;;;;;;;;;;;
2021/09/05 19:10:10;;;;;;;;;;;;;;;;;;;;;
2021/09/05 19:16:26;;;;;;;;;;;;;;;;;;;;;
2021/09/05 19:23:07;;;;;;;10.02;8.45;;;18.70;82.00;;;;;;5967176;23;20488;-92
2021/09/05 19:35:37;;;;;;;;;;;;;;;;;;;;;
2021/09/05 19:45:18;;;;;;;;;;;;;;;;;;;;;
2021/09/05 19:52:10;;;;;;;;;;;;;;;;;;;;;
2021/09/05 20:05:21;;;;;;;;;;;;;;;;;;;;;
2021/09/05 20:08:29;;;;;;;12.32;9.73;;;18.10;84.50;;;;;;6123552;23;20097;-92
2021/09/05 20:12:06;;;;;;;;;;;;;;;;;;;;;
2021/09/05 20:15:24;;;;;;;12.18;9.52;;;18.00;84.60;;;;;;6118416;23;20328;-93
2021/09/05 20:18:50;;;;;;;14.40;9.45;;;17.90;84.70;;;;;;6124951;23;20025;-92
2021/09/05 20:21:50;;;;;;;12.75;9.82;;;17.90;84.80;;;;;;6125540;23;20067;-91
2021/09/05 20:24:30;;;;;;;;;;;;;;;;;;;;;
2021/09/05 20:33:57;;;;;;;10.82;8.70;;;17.70;85.30;;;;;;6084722;23;20449;-89
2021/09/05 20:37:09;;;;;;;;;;;;;;;;;;;;;
2021/09/05 20:40:04;;;;;;;12.95;8.95;;;17.60;85.60;;;;;;6065883;23;20086;-90
2021/09/05 20:42:49;;;;;;;;;;;;;;;;;;;;;
2021/09/05 20:49:01;;;;;;;12.65;9.45;;;17.50;86.00;;;;;;6110504;23;20534;-89
2021/09/05 20:52:04;;;;;;;;;;;;;;;;;;;;;